TimeCST,TemperatureF,Dew PointF,Humidity,Sea Level PressureIn,VisibilityMPH,Wind Direction,Wind SpeedMPH,Gust SpeedMPH,PrecipitationIn,Events,Conditions,WindDirDegrees,DateUTC
12:53 AM,28.0,24.1,85,30.14,10.0,SSW,20.7,-,N/A,,Overcast,210,2013-11-25 06:53:00
1:53 AM,27.0,24.1,89,30.11,10.0,SSW,20.7,28.8,N/A,,Overcast,210,2013-11-25 07:53:00
2:53 AM,27.0,24.1,89,30.09,10.0,SSW,21.9,28.8,N/A,,Overcast,200,2013-11-25 08:53:00
3:53 AM,27.0,24.1,89,30.07,10.0,SSW,19.6,-,N/A,,Overcast,210,2013-11-25 09:53:00
4:53 AM,27.0,24.1,89,30.07,10.0,SSW,15.0,-,N/A,,Overcast,210,2013-11-25 10:53:00
5:53 AM,27.0,24.1,89,30.07,10.0,SSW,17.3,-,N/A,,Overcast,210,2013-11-25 11:53:00
6:53 AM,27.0,24.1,89,30.07,10.0,SSW,16.1,-,N/A,,Overcast,210,2013-11-25 12:53:00
7:53 AM,28.0,25.0,88,30.07,10.0,SSW,11.5,-,N/A,,Overcast,210,2013-11-25 13:53:00
8:53 AM,28.9,25.0,85,30.08,10.0,South,8.1,-,N/A,,Overcast,190,2013-11-25 14:53:00
9:31 AM,30.2,26.6,86,30.04,10.0,SSW,9.2,-,N/A,,Overcast,200,2013-11-25 15:31:00
9:53 AM,30.0,26.1,85,30.09,10.0,SSW,8.1,-,N/A,,Overcast,210,2013-11-25 15:53:00
10:49 AM,30.2,23.0,75,30.05,10.0,NW,9.2,-,N/A,,Overcast,310,2013-11-25 16:49:00
10:53 AM,30.0,23.0,75,30.10,10.0,WNW,9.2,-,N/A,,Overcast,290,2013-11-25 16:53:00
11:53 AM,28.9,24.1,82,30.10,10.0,NW,10.4,-,N/A,,Overcast,320,2013-11-25 17:53:00
12:53 PM,30.9,24.1,76,30.09,10.0,NNW,12.7,-,N/A,,Overcast,330,2013-11-25 18:53:00
1:53 PM,28.9,23.0,78,30.12,10.0,North,15.0,-,N/A,,Overcast,350,2013-11-25 19:53:00
2:12 PM,28.4,23.0,80,30.06,10.0,North,16.1,-,N/A,,Overcast,360,2013-11-25 20:12:00
2:53 PM,28.0,23.0,81,30.12,10.0,North,12.7,-,N/A,,Overcast,360,2013-11-25 20:53:00
3:53 PM,28.0,23.0,81,30.16,8.0,North,16.1,-,N/A,,Overcast,360,2013-11-25 21:53:00
4:24 PM,26.6,24.8,93,30.12,4.0,North,20.7,-,N/A,,Overcast,350,2013-11-25 22:24:00
4:38 PM,26.6,24.8,93,30.13,2.0,North,18.4,25.3,N/A,,Overcast,360,2013-11-25 22:38:00
4:53 PM,26.1,24.1,92,30.20,2.0,North,17.3,-,N/A,,Overcast,350,2013-11-25 22:53:00
5:01 PM,26.6,24.8,93,30.14,1.8,North,18.4,-,N/A,,Overcast,350,2013-11-25 23:01:00
5:10 PM,26.6,24.8,93,30.14,1.8,North,16.1,-,N/A,,Overcast,350,2013-11-25 23:10:00
5:38 PM,28.4,26.6,93,30.15,2.0,North,17.3,-,N/A,,Overcast,10,2013-11-25 23:38:00
5:49 PM,28.4,26.6,93,30.16,4.0,North,17.3,-,N/A,,Overcast,10,2013-11-25 23:49:00
5:53 PM,28.0,26.1,92,30.22,5.0,North,15.0,-,N/A,,Overcast,10,2013-11-25 23:53:00
6:32 PM,28.4,26.6,93,30.18,4.0,North,17.3,-,N/A,,Overcast,360,2013-11-26 00:32:00
6:53 PM,28.0,26.1,92,30.25,4.0,North,18.4,-,N/A,,Overcast,10,2013-11-26 00:53:00
7:53 PM,28.0,25.0,88,30.27,7.0,North,13.8,-,N/A,,Overcast,360,2013-11-26 01:53:00
8:53 PM,27.0,25.0,92,30.28,9.0,North,16.1,-,N/A,,Overcast,10,2013-11-26 02:53:00
9:53 PM,28.0,25.0,88,30.29,9.0,North,15.0,-,N/A,,Overcast,360,2013-11-26 03:53:00
10:53 PM,26.1,23.0,88,30.30,7.0,NNW,11.5,-,N/A,,Mostly Cloudy,340,2013-11-26 04:53:00
11:14 PM,24.8,23.0,93,30.24,6.0,NNW,9.2,-,N/A,,Scattered Clouds,330,2013-11-26 05:14:00
11:53 PM,24.1,21.9,91,30.30,6.0,NW,9.2,-,N/A,,Clear,320,2013-11-26 05:53:00